createdAt,value
2022-09-04T06:31:37.523Z,17.70
2022-09-04T06:34:19.109Z,17.80
2022-09-04T06:37:08.482Z,17.80
2022-09-04T06:39:52.061Z,17.80
2022-09-04T06:42:32.017Z,17.80
2022-09-04T06:45:17.112Z,17.80
2022-09-04T06:48:00.470Z,17.80
2022-09-04T06:50:37.029Z,17.80
2022-09-04T06:53:19.101Z,17.80
2022-09-04T06:55:58.512Z,17.80
2022-09-04T06:59:01.624Z,17.80
2022-09-04T07:01:41.315Z,17.80
2022-09-04T07:04:21.920Z,17.80
2022-09-04T07:07:04.447Z,17.90
2022-09-04T07:09:38.615Z,18.00
2022-09-04T07:12:28.278Z,17.90
2022-09-04T07:15:29.012Z,17.90
2022-09-04T07:18:09.637Z,17.90
2022-09-04T07:20:44.078Z,18.00
2022-09-04T07:23:36.023Z,17.90
2022-09-04T07:26:12.250Z,17.90
2022-09-04T07:28:57.270Z,18.00
2022-09-04T07:31:36.446Z,18.00
2022-09-04T07:34:12.919Z,18.00
2022-09-04T07:36:46.744Z,18.00
2022-09-04T07:39:24.518Z,18.00
2022-09-04T07:41:59.812Z,18.00
2022-09-04T07:44:35.403Z,18.00
2022-09-04T07:47:12.250Z,18.00
2022-09-04T07:49:52.545Z,18.00
2022-09-04T07:52:31.028Z,18.00
2022-09-04T07:55:15.396Z,18.00
2022-09-04T07:58:21.692Z,18.10
2022-09-04T08:01:04.283Z,18.10
2022-09-04T08:03:53.812Z,18.10
2022-09-04T08:06:29.893Z,18.10
2022-09-04T08:09:48.770Z,18.10
2022-09-04T08:12:56.339Z,18.10
2022-09-04T08:15:40.902Z,18.10
2022-09-04T08:18:23.590Z,18.10
2022-09-04T08:21:01.711Z,18.10
2022-09-04T08:23:59.818Z,18.20
2022-09-04T08:26:37.274Z,18.20
2022-09-04T08:29:23.114Z,18.20
2022-09-04T08:32:04.675Z,18.20
2022-09-04T08:35:00.516Z,18.30
2022-09-04T08:37:33.412Z,18.20
2022-09-04T08:41:01.188Z,18.20
2022-09-04T08:43:52.243Z,18.30
2022-09-04T08:46:56.540Z,18.30
2022-09-04T08:50:04.316Z,18.30
2022-09-04T08:52:53.487Z,18.30
2022-09-04T08:55:57.233Z,18.30
2022-09-04T08:59:01.361Z,18.30
2022-09-04T09:01:58.035Z,18.30
2022-09-04T09:04:56.121Z,18.30
2022-09-04T09:07:53.393Z,18.30
2022-09-04T09:11:02.121Z,18.40
2022-09-04T09:14:03.454Z,18.40
2022-09-04T09:16:43.879Z,18.40
2022-09-04T09:19:30.738Z,18.40
2022-09-04T09:22:10.576Z,18.40
2022-09-04T09:25:07.143Z,18.30
2022-09-04T09:28:11.947Z,18.30
2022-09-04T09:31:07.601Z,18.30
2022-09-04T09:34:18.961Z,18.30
2022-09-04T09:37:13.818Z,18.30
2022-09-04T09:40:13.824Z,18.30
2022-09-04T09:43:34.514Z,18.30
2022-09-04T09:46:47.547Z,18.30
2022-09-04T09:50:07.527Z,18.30
2022-09-04T09:53:15.127Z,18.40
2022-09-04T09:56:14.950Z,18.40
2022-09-04T09:59:27.802Z,18.40
2022-09-04T10:02:19.722Z,18.40
2022-09-04T10:05:00.934Z,18.50
2022-09-04T10:08:00.102Z,18.50
2022-09-04T10:10:57.969Z,18.40
2022-09-04T10:13:46.429Z,18.40
2022-09-04T10:16:42.875Z,18.40
2022-09-04T10:19:42.330Z,18.50
2022-09-04T10:22:42.555Z,18.50
2022-09-04T10:47:08.918Z,18.50
2022-09-04T10:49:59.719Z,18.40
2022-09-04T10:53:01.335Z,18.40
2022-09-04T10:55:49.318Z,18.50
2022-09-04T10:58:47.092Z,18.50
2022-09-04T11:01:58.130Z,18.50
2022-09-04T12:52:20.321Z,18.60
2022-09-04T12:55:04.850Z,18.60
2022-09-04T12:57:45.606Z,18.60
2022-09-04T13:00:16.887Z,18.60
2022-09-04T13:03:02.766Z,18.50
2022-09-04T13:05:54.897Z,18.50
2022-09-04T13:08:34.100Z,18.60
2022-09-04T13:11:18.837Z,18.60
2022-09-04T13:13:59.528Z,18.60
2022-09-04T13:16:33.798Z,18.60
2022-09-04T13:19:12.031Z,18.60
2022-09-04T13:21:59.668Z,18.50
2022-09-04T13:24:44.536Z,18.60
2022-09-04T13:27:34.383Z,18.60
2022-09-04T13:30:09.539Z,18.60
2022-09-04T13:32:57.783Z,18.60
2022-09-04T13:35:59.408Z,18.70
2022-09-04T13:38:58.956Z,18.60
2022-09-04T13:41:59.650Z,18.60
2022-09-04T13:44:51.188Z,18.60
2022-09-04T13:47:32.267Z,18.60
2022-09-04T13:50:08.410Z,18.60
2022-09-04T13:52:41.331Z,18.60
2022-09-04T13:55:14.431Z,18.60
2022-09-04T13:57:48.729Z,18.60
2022-09-04T14:00:19.406Z,18.50
2022-09-04T14:02:48.697Z,18.50
2022-09-04T14:05:23.275Z,18.50
2022-09-04T14:08:02.940Z,18.60
2022-09-04T14:10:52.844Z,18.50
2022-09-04T14:13:38.058Z,18.50
2022-09-04T14:16:11.539Z,18.50
2022-09-04T14:19:13.460Z,18.60
2022-09-04T14:22:16.249Z,18.60
2022-09-04T14:24:56.359Z,18.60
2022-09-04T14:27:34.352Z,18.50
2022-09-04T14:30:07.295Z,18.40
2022-09-04T14:32:55.682Z,18.50
2022-09-04T14:35:35.822Z,18.50
2022-09-04T14:38:54.208Z,18.40
2022-09-04T14:41:36.563Z,18.50
2022-09-04T14:44:21.375Z,18.50
2022-09-04T14:47:02.122Z,18.50
2022-09-04T14:49:34.523Z,18.50
2022-09-04T14:52:10.210Z,18.50
2022-09-04T14:54:43.618Z,18.50
2022-09-04T14:57:19.172Z,18.50
2022-09-04T14:59:57.137Z,18.50
2022-09-04T15:02:33.617Z,18.50
2022-09-04T15:05:10.590Z,18.50
2022-09-04T15:07:55.486Z,18.50
2022-09-04T15:10:28.640Z,18.50
2022-09-04T15:13:35.446Z,18.50
2022-09-04T15:16:14.124Z,18.60
2022-09-04T15:18:55.926Z,18.50
2022-09-04T15:21:29.240Z,18.50
2022-09-04T15:24:10.442Z,18.50
2022-09-04T15:26:46.380Z,18.50
2022-09-04T15:29:22.874Z,18.50
2022-09-04T15:32:00.802Z,18.50
2022-09-04T15:34:30.775Z,18.50
2022-09-04T15:37:14.528Z,18.40
2022-09-04T15:39:54.004Z,18.40
2022-09-04T15:42:41.588Z,18.50
2022-09-04T15:45:21.649Z,18.50
2022-09-04T15:48:06.435Z,18.50
2022-09-04T15:50:41.418Z,18.50
2022-09-04T15:53:27.038Z,18.50
2022-09-04T15:56:09.611Z,18.50
2022-09-04T15:58:49.255Z,18.50
2022-09-04T16:01:20.031Z,18.50
2022-09-04T16:04:01.382Z,18.50
2022-09-04T16:06:32.959Z,18.50
2022-09-04T16:09:09.264Z,18.50
2022-09-04T16:11:42.697Z,18.50
2022-09-04T16:14:18.881Z,18.50
2022-09-04T16:16:51.169Z,18.40
2022-09-04T16:19:28.039Z,18.40
2022-09-04T16:22:08.422Z,18.40
2022-09-04T16:24:43.731Z,18.40
2022-09-04T16:27:17.883Z,18.50
2022-09-04T16:29:51.159Z,18.50
2022-09-04T16:32:22.995Z,18.40
2022-09-04T16:34:57.056Z,18.50
2022-09-04T16:37:32.531Z,18.50
2022-09-04T16:40:13.672Z,18.50
2022-09-04T16:42:50.156Z,18.50
2022-09-04T16:45:23.410Z,18.50
2022-09-04T16:47:59.171Z,18.40
2022-09-04T16:50:48.762Z,18.40
2022-09-04T16:53:23.433Z,18.40
2022-09-04T16:56:03.586Z,18.40
2022-09-04T16:58:46.110Z,18.50
2022-09-04T17:01:18.942Z,18.50
2022-09-04T17:04:29.358Z,18.40
2022-09-04T17:07:04.755Z,18.50
2022-09-04T17:09:45.148Z,18.40
2022-09-04T17:12:26.130Z,18.40
2022-09-04T17:15:00.755Z,18.40
2022-09-04T17:17:32.257Z,18.40
2022-09-04T17:20:02.199Z,18.40
2022-09-04T17:28:56.327Z,18.40
2022-09-04T17:28:59.337Z,18.40
2022-09-04T17:29:10.108Z,18.40
2022-09-04T17:31:45.689Z,18.40
2022-09-04T17:40:33.548Z,18.40
2022-09-04T17:40:51.766Z,18.40
2022-09-04T17:40:52.233Z,18.40
2022-09-04T17:43:22.229Z,18.40
2022-09-04T17:46:04.564Z,18.50
2022-09-04T17:48:34.601Z,18.50
2022-09-04T17:51:07.342Z,18.50
2022-09-04T17:53:39.928Z,18.50
2022-09-04T17:56:15.820Z,18.50
2022-09-04T17:58:50.375Z,18.50
2022-09-04T18:01:26.402Z,18.50
2022-09-04T18:04:21.773Z,18.50
2022-09-04T18:06:58.758Z,18.50
2022-09-04T18:09:33.232Z,18.50
2022-09-04T18:12:10.257Z,18.50
2022-09-04T18:14:45.300Z,18.50
2022-09-04T18:17:23.548Z,18.50
2022-09-04T18:19:57.258Z,18.50
2022-09-04T18:22:33.378Z,18.50
2022-09-04T18:25:15.761Z,18.50
2022-09-04T18:28:11.372Z,18.60
2022-09-04T18:37:11.799Z,18.60
2022-09-04T18:37:20.414Z,18.60
2022-09-04T18:37:26.027Z,18.60
2022-09-04T18:39:44.096Z,18.60
2022-09-04T18:49:32.464Z,18.60
2022-09-04T18:50:24.682Z,18.60
2022-09-04T18:50:50.178Z,18.60
2022-09-04T18:51:18.806Z,18.60
2022-09-04T18:53:54.139Z,18.60
2022-09-04T18:56:27.575Z,18.60
2022-09-04T18:59:01.772Z,18.60
2022-09-04T19:01:39.641Z,18.60
2022-09-04T19:04:36.132Z,18.60
2022-09-04T19:07:10.580Z,18.60
2022-09-04T19:09:56.709Z,18.60
2022-09-04T19:12:35.768Z,18.60
2022-09-04T19:15:36.729Z,18.60
2022-09-04T19:18:15.068Z,18.60
2022-09-04T19:20:48.978Z,18.70
2022-09-04T19:23:27.959Z,18.70
2022-09-04T19:26:00.735Z,18.60
2022-09-04T19:28:39.611Z,18.60
2022-09-04T19:31:20.965Z,18.60
2022-09-04T19:33:54.289Z,18.60
2022-09-04T19:36:34.344Z,18.60
2022-09-04T19:45:56.067Z,18.60
2022-09-04T19:46:08.363Z,18.60
2022-09-04T19:46:11.720Z,18.60
2022-09-04T19:48:18.582Z,18.60
2022-09-04T19:53:30.234Z,18.60
2022-09-04T19:53:49.382Z,18.60
2022-09-04T19:56:28.743Z,18.60
2022-09-04T19:59:04.948Z,18.60
2022-09-04T20:01:43.339Z,18.50
2022-09-04T20:04:20.137Z,18.50
2022-09-04T20:06:50.874Z,18.50
2022-09-04T20:09:27.266Z,18.50
2022-09-04T20:12:02.973Z,18.50
2022-09-04T20:14:39.149Z,18.50
2022-09-04T20:17:18.626Z,18.50
2022-09-04T20:19:53.078Z,18.50
2022-09-04T20:22:33.330Z,18.60
2022-09-04T20:25:27.978Z,18.60
2022-09-04T20:28:08.720Z,18.60
2022-09-04T20:30:39.077Z,18.60
2022-09-04T20:33:13.103Z,18.60
2022-09-04T20:35:45.186Z,18.60
2022-09-04T20:38:23.304Z,18.60
2022-09-04T20:40:56.780Z,18.60
2022-09-04T20:43:32.243Z,18.50
2022-09-04T20:49:13.979Z,18.50
2022-09-04T20:52:50.064Z,18.50
2022-09-04T20:52:57.776Z,18.50
2022-09-04T20:55:15.274Z,18.50
2022-09-04T21:03:11.417Z,18.50
2022-09-04T21:03:21.496Z,18.50
2022-09-04T21:04:06.146Z,18.50
2022-09-04T21:06:43.621Z,18.50
2022-09-04T21:09:27.312Z,18.50
2022-09-04T21:12:04.903Z,18.50
2022-09-04T21:14:44.825Z,18.50
2022-09-04T21:17:42.791Z,18.50
2022-09-04T21:20:35.257Z,18.50
2022-09-04T21:23:21.112Z,18.50
2022-09-04T21:25:58.718Z,18.50
2022-09-04T21:28:54.195Z,18.50
2022-09-04T21:31:47.274Z,18.50
2022-09-04T21:34:43.401Z,18.50
2022-09-04T21:37:18.838Z,18.40
2022-09-04T21:40:37.046Z,18.40
2022-09-04T21:43:18.228Z,18.40
2022-09-04T21:46:04.655Z,18.40
2022-09-04T21:49:08.056Z,18.40
2022-09-04T21:52:04.248Z,18.40
2022-09-04T21:58:06.698Z,18.40
2022-09-04T22:02:40.623Z,18.40
2022-09-04T22:02:46.081Z,18.40
2022-09-04T22:04:03.322Z,18.40
2022-09-04T22:08:16.491Z,18.40
2022-09-04T22:13:30.993Z,18.40
2022-09-04T22:13:37.504Z,18.40
2022-09-04T22:16:18.858Z,18.40
2022-09-04T22:19:16.250Z,18.40
2022-09-04T22:22:04.365Z,18.40
2022-09-04T22:25:01.564Z,18.30
2022-09-04T22:28:09.043Z,18.30
2022-09-04T22:30:50.275Z,18.30
2022-09-04T22:34:14.933Z,18.30
2022-09-04T22:37:34.811Z,18.30
2022-09-04T22:40:27.865Z,18.30
2022-09-04T22:43:12.874Z,18.30
2022-09-04T22:46:11.580Z,18.30
2022-09-04T22:49:24.255Z,18.30
2022-09-04T22:52:27.965Z,18.30
2022-09-04T22:55:40.080Z,18.30
2022-09-04T22:58:22.171Z,18.30
2022-09-04T23:00:57.415Z,18.20
2022-09-04T23:03:38.370Z,18.20
2022-09-04T23:10:26.778Z,18.20
2022-09-04T23:13:58.274Z,18.20
2022-09-04T23:13:59.988Z,18.20
2022-09-04T23:16:26.226Z,18.20
2022-09-04T23:23:26.110Z,18.20
2022-09-04T23:26:33.725Z,18.20
2022-09-04T23:26:41.495Z,18.20
2022-09-04T23:28:31.673Z,18.20
2022-09-04T23:31:19.861Z,18.20
2022-09-04T23:34:12.560Z,18.20
2022-09-04T23:36:53.151Z,18.20
2022-09-04T23:40:10.275Z,18.20
2022-09-04T23:43:20.157Z,18.20
2022-09-04T23:46:08.741Z,18.10
2022-09-04T23:49:09.678Z,18.00
2022-09-04T23:51:47.013Z,18.10
2022-09-04T23:54:36.260Z,18.10
2022-09-04T23:57:26.318Z,18.10
